sensor_id;sensor_type;location;lat;lon;timestamp;pressure;altitude;pressure_sealevel;temperature;humidity
76478;BME280;65309;49.790;18.972;2022-12-29T00:03:02;96810.72;;;4.30;58.31
76478;BME280;65309;49.790;18.972;2022-12-29T00:08:08;96812.97;;;4.18;58.75
76478;BME280;65309;49.790;18.972;2022-12-29T00:13:10;96823.91;;;4.18;57.55
76478;BME280;65309;49.790;18.972;2022-12-29T00:18:31;96830.91;;;4.07;57.78
76478;BME280;65309;49.790;18.972;2022-12-29T00:23:37;96824.88;;;3.99;59.21
76478;BME280;65309;49.790;18.972;2022-12-29T00:28:58;96823.06;;;3.80;60.71
76478;BME280;65309;49.790;18.972;2022-12-29T00:34:19;96806.50;;;4.00;59.72
76478;BME280;65309;49.790;18.972;2022-12-29T00:39:41;96803.34;;;4.27;56.63
76478;BME280;65309;49.790;18.972;2022-12-29T00:45:02;96779.25;;;4.09;58.67
76478;BME280;65309;49.790;18.972;2022-12-29T00:50:04;96785.03;;;3.98;59.07
76478;BME280;65309;49.790;18.972;2022-12-29T00:55:08;96773.13;;;4.05;58.84
76478;BME280;65309;49.790;18.972;2022-12-29T01:00:10;96771.72;;;4.13;57.84
76478;BME280;65309;49.790;18.972;2022-12-29T01:05:12;96781.13;;;4.25;58.25
76478;BME280;65309;49.790;18.972;2022-12-29T01:10:16;96787.69;;;4.14;57.88
76478;BME280;65309;49.790;18.972;2022-12-29T01:15:19;96800.38;;;4.08;58.31
76478;BME280;65309;49.790;18.972;2022-12-29T01:20:21;96753.75;;;4.12;59.77
76478;BME280;65309;49.790;18.972;2022-12-29T01:25:24;96780.22;;;4.02;59.60
76478;BME280;65309;49.790;18.972;2022-12-29T01:30:26;96770.19;;;4.25;59.26
76478;BME280;65309;49.790;18.972;2022-12-29T01:35:28;96814.53;;;4.45;58.28
76478;BME280;65309;49.790;18.972;2022-12-29T01:40:31;96810.81;;;4.64;57.79
76478;BME280;65309;49.790;18.972;2022-12-29T01:45:33;96809.06;;;4.70;57.84
76478;BME280;65309;49.790;18.972;2022-12-29T01:50:39;96776.28;;;4.79;56.62
76478;BME280;65309;49.790;18.972;2022-12-29T01:55:48;96778.00;;;4.98;55.85
76478;BME280;65309;49.790;18.972;2022-12-29T02:00:50;96780.09;;;4.94;56.31
76478;BME280;65309;49.790;18.972;2022-12-29T02:05:57;96793.44;;;5.05;55.43
76478;BME280;65309;49.790;18.972;2022-12-29T02:11:02;96785.88;;;5.09;56.26
76478;BME280;65309;49.790;18.972;2022-12-29T02:16:13;96761.06;;;5.13;55.17
76478;BME280;65309;49.790;18.972;2022-12-29T02:21:36;96753.72;;;5.09;58.04
76478;BME280;65309;49.790;18.972;2022-12-29T02:32:19;96760.34;;;4.99;58.62
76478;BME280;65309;49.790;18.972;2022-12-29T02:37:31;96733.88;;;5.05;57.79
76478;BME280;65309;49.790;18.972;2022-12-29T02:42:40;96740.00;;;5.09;56.87
76478;BME280;65309;49.790;18.972;2022-12-29T02:47:48;96704.59;;;5.15;58.23
76478;BME280;65309;49.790;18.972;2022-12-29T02:52:56;96696.88;;;5.23;58.76
76478;BME280;65309;49.790;18.972;2022-12-29T02:58:17;96715.03;;;5.07;57.75
76478;BME280;65309;49.790;18.972;2022-12-29T03:03:28;96715.16;;;5.04;58.82
76478;BME280;65309;49.790;18.972;2022-12-29T03:08:39;96709.63;;;4.82;59.99
76478;BME280;65309;49.790;18.972;2022-12-29T03:13:47;96698.50;;;4.64;59.84
76478;BME280;65309;49.790;18.972;2022-12-29T03:19:15;96739.75;;;4.95;59.57
76478;BME280;65309;49.790;18.972;2022-12-29T03:24:24;96718.34;;;5.02;59.55
76478;BME280;65309;49.790;18.972;2022-12-29T03:29:28;96736.38;;;4.78;60.84
76478;BME280;65309;49.790;18.972;2022-12-29T03:34:33;96731.56;;;4.82;59.37
76478;BME280;65309;49.790;18.972;2022-12-29T03:39:36;96714.03;;;4.80;62.23
76478;BME280;65309;49.790;18.972;2022-12-29T03:44:41;96723.66;;;4.84;60.22
76478;BME280;65309;49.790;18.972;2022-12-29T03:49:44;96729.91;;;4.85;60.20
76478;BME280;65309;49.790;18.972;2022-12-29T03:54:46;96730.50;;;5.01;59.48
76478;BME280;65309;49.790;18.972;2022-12-29T03:59:48;96714.88;;;4.89;60.91
76478;BME280;65309;49.790;18.972;2022-12-29T04:04:52;96724.72;;;4.99;60.36
76478;BME280;65309;49.790;18.972;2022-12-29T04:09:54;96715.41;;;5.19;58.95
76478;BME280;65309;49.790;18.972;2022-12-29T04:14:56;96731.56;;;5.17;59.42
76478;BME280;65309;49.790;18.972;2022-12-29T04:19:59;96723.72;;;5.28;59.36
76478;BME280;65309;49.790;18.972;2022-12-29T04:25:20;96719.53;;;5.36;58.76
76478;BME280;65309;49.790;18.972;2022-12-29T04:30:22;96729.84;;;5.32;56.78
76478;BME280;65309;49.790;18.972;2022-12-29T04:35:26;96734.75;;;5.15;58.98
76478;BME280;65309;49.790;18.972;2022-12-29T04:40:28;96718.50;;;5.21;58.88
76478;BME280;65309;49.790;18.972;2022-12-29T04:45:30;96678.44;;;5.01;59.97
76478;BME280;65309;49.790;18.972;2022-12-29T04:50:33;96705.78;;;4.92;62.35
76478;BME280;65309;49.790;18.972;2022-12-29T04:55:35;96699.75;;;4.85;60.72
76478;BME280;65309;49.790;18.972;2022-12-29T05:00:37;96690.34;;;4.86;60.96
76478;BME280;65309;49.790;18.972;2022-12-29T05:05:40;96685.06;;;4.91;61.80
76478;BME280;65309;49.790;18.972;2022-12-29T05:10:44;96709.38;;;4.89;62.30
76478;BME280;65309;49.790;18.972;2022-12-29T05:15:49;96715.06;;;4.95;60.78
76478;BME280;65309;49.790;18.972;2022-12-29T05:20:52;96679.03;;;4.96;61.26
76478;BME280;65309;49.790;18.972;2022-12-29T05:25:54;96708.56;;;5.01;61.52
76478;BME280;65309;49.790;18.972;2022-12-29T05:30:56;96704.63;;;5.02;61.71
76478;BME280;65309;49.790;18.972;2022-12-29T05:36:04;96702.41;;;5.10;60.57
76478;BME280;65309;49.790;18.972;2022-12-29T05:41:06;96695.94;;;5.17;60.82
76478;BME280;65309;49.790;18.972;2022-12-29T05:46:08;96694.25;;;5.19;60.37
76478;BME280;65309;49.790;18.972;2022-12-29T05:51:12;96697.78;;;5.20;60.29
76478;BME280;65309;49.790;18.972;2022-12-29T05:56:15;96693.13;;;5.29;60.56
76478;BME280;65309;49.790;18.972;2022-12-29T06:01:18;96690.06;;;5.27;60.29
76478;BME280;65309;49.790;18.972;2022-12-29T06:06:21;96679.97;;;5.24;60.44
76478;BME280;65309;49.790;18.972;2022-12-29T06:11:23;96681.25;;;5.54;59.40
76478;BME280;65309;49.790;18.972;2022-12-29T06:16:25;96683.91;;;5.67;60.47
76478;BME280;65309;49.790;18.972;2022-12-29T06:21:29;96673.56;;;5.71;60.34
76478;BME280;65309;49.790;18.972;2022-12-29T06:26:31;96670.28;;;5.85;60.63
76478;BME280;65309;49.790;18.972;2022-12-29T06:31:33;96680.69;;;5.90;61.30
76478;BME280;65309;49.790;18.972;2022-12-29T06:36:37;96681.69;;;6.05;60.36
76478;BME280;65309;49.790;18.972;2022-12-29T06:41:39;96680.78;;;6.08;59.14
76478;BME280;65309;49.790;18.972;2022-12-29T06:46:41;96667.50;;;6.07;59.81
76478;BME280;65309;49.790;18.972;2022-12-29T06:51:44;96665.69;;;6.13;60.35
76478;BME280;65309;49.790;18.972;2022-12-29T06:56:46;96682.63;;;6.11;58.62
76478;BME280;65309;49.790;18.972;2022-12-29T07:01:48;96661.72;;;6.14;59.28
76478;BME280;65309;49.790;18.972;2022-12-29T07:06:51;96661.13;;;6.19;60.67
76478;BME280;65309;49.790;18.972;2022-12-29T07:11:53;96656.22;;;6.14;62.03
76478;BME280;65309;49.790;18.972;2022-12-29T07:16:55;96621.00;;;6.12;62.23
76478;BME280;65309;49.790;18.972;2022-12-29T07:21:59;96634.16;;;6.17;60.46
76478;BME280;65309;49.790;18.972;2022-12-29T07:27:01;96652.94;;;6.28;62.77
76478;BME280;65309;49.790;18.972;2022-12-29T07:32:03;96655.06;;;6.24;61.21
76478;BME280;65309;49.790;18.972;2022-12-29T07:37:07;96647.13;;;6.26;62.07
76478;BME280;65309;49.790;18.972;2022-12-29T07:42:09;96670.63;;;6.27;61.05
76478;BME280;65309;49.790;18.972;2022-12-29T07:47:11;96684.81;;;6.25;61.97
76478;BME280;65309;49.790;18.972;2022-12-29T07:52:14;96701.16;;;6.29;61.04
76478;BME280;65309;49.790;18.972;2022-12-29T07:57:16;96704.53;;;6.33;61.22
76478;BME280;65309;49.790;18.972;2022-12-29T08:02:18;96702.06;;;6.35;61.89
76478;BME280;65309;49.790;18.972;2022-12-29T08:07:22;96703.44;;;6.30;61.41
76478;BME280;65309;49.790;18.972;2022-12-29T08:12:24;96691.38;;;6.28;62.16
76478;BME280;65309;49.790;18.972;2022-12-29T08:17:26;96691.09;;;6.35;61.41
76478;BME280;65309;49.790;18.972;2022-12-29T08:22:29;96676.16;;;6.45;61.39
76478;BME280;65309;49.790;18.972;2022-12-29T08:27:31;96675.56;;;6.41;62.49
76478;BME280;65309;49.790;18.972;2022-12-29T08:32:33;96699.69;;;6.46;61.41
76478;BME280;65309;49.790;18.972;2022-12-29T08:37:36;96683.66;;;6.54;61.89
76478;BME280;65309;49.790;18.972;2022-12-29T08:42:38;96691.72;;;6.48;61.93
76478;BME280;65309;49.790;18.972;2022-12-29T08:47:40;96686.72;;;6.56;62.23
76478;BME280;65309;49.790;18.972;2022-12-29T08:52:44;96699.94;;;6.39;61.70
76478;BME280;65309;49.790;18.972;2022-12-29T08:57:46;96683.47;;;6.39;61.89
76478;BME280;65309;49.790;18.972;2022-12-29T09:02:48;96709.31;;;6.51;61.43
76478;BME280;65309;49.790;18.972;2022-12-29T09:07:52;96693.28;;;6.49;63.29
76478;BME280;65309;49.790;18.972;2022-12-29T09:12:54;96705.78;;;6.50;61.75
76478;BME280;65309;49.790;18.972;2022-12-29T09:17:56;96695.72;;;6.47;63.61
76478;BME280;65309;49.790;18.972;2022-12-29T09:22:59;96682.56;;;6.42;62.95
76478;BME280;65309;49.790;18.972;2022-12-29T09:28:01;96667.59;;;6.34;62.12
76478;BME280;65309;49.790;18.972;2022-12-29T09:33:07;96665.50;;;6.56;62.01
76478;BME280;65309;49.790;18.972;2022-12-29T09:38:11;96650.59;;;6.75;62.33
76478;BME280;65309;49.790;18.972;2022-12-29T09:43:23;96667.06;;;6.66;61.30
76478;BME280;65309;49.790;18.972;2022-12-29T09:48:31;96665.69;;;6.71;61.20
76478;BME280;65309;49.790;18.972;2022-12-29T09:53:38;96668.44;;;6.80;60.60
76478;BME280;65309;49.790;18.972;2022-12-29T09:58:45;96659.75;;;7.00;61.00
76478;BME280;65309;49.790;18.972;2022-12-29T10:03:51;96655.31;;;7.29;60.44
76478;BME280;65309;49.790;18.972;2022-12-29T10:08:59;96667.78;;;7.67;58.52
76478;BME280;65309;49.790;18.972;2022-12-29T10:14:17;96684.00;;;8.07;57.37
76478;BME280;65309;49.790;18.972;2022-12-29T10:24:50;96669.63;;;8.45;56.32
76478;BME280;65309;49.790;18.972;2022-12-29T10:29:56;96663.53;;;8.41;55.64
76478;BME280;65309;49.790;18.972;2022-12-29T10:35:03;96662.72;;;8.73;55.76
76478;BME280;65309;49.790;18.972;2022-12-29T10:40:18;96645.72;;;8.74;57.34
76478;BME280;65309;49.790;18.972;2022-12-29T10:45:22;96661.94;;;8.72;56.49
76478;BME280;65309;49.790;18.972;2022-12-29T10:50:26;96662.13;;;8.69;55.62
76478;BME280;65309;49.790;18.972;2022-12-29T10:55:33;96657.50;;;8.51;57.46
76478;BME280;65309;49.790;18.972;2022-12-29T11:00:37;96651.56;;;8.44;57.84
76478;BME280;65309;49.790;18.972;2022-12-29T11:05:41;96636.69;;;8.50;56.83
76478;BME280;65309;49.790;18.972;2022-12-29T11:10:57;96634.91;;;8.62;56.38
76478;BME280;65309;49.790;18.972;2022-12-29T11:16:00;96624.28;;;8.69;57.10
76478;BME280;65309;49.790;18.972;2022-12-29T11:21:06;96626.69;;;9.00;56.32
76478;BME280;65309;49.790;18.972;2022-12-29T11:26:17;96629.16;;;9.13;55.28
76478;BME280;65309;49.790;18.972;2022-12-29T11:31:21;96624.50;;;9.19;54.85
76478;BME280;65309;49.790;18.972;2022-12-29T11:36:24;96612.25;;;9.49;55.04
76478;BME280;65309;49.790;18.972;2022-12-29T11:41:29;96603.59;;;9.42;55.02
76478;BME280;65309;49.790;18.972;2022-12-29T11:46:33;96612.44;;;9.31;55.16
76478;BME280;65309;49.790;18.972;2022-12-29T11:51:39;96623.25;;;9.05;55.91
76478;BME280;65309;49.790;18.972;2022-12-29T11:56:46;96608.16;;;8.77;56.92
76478;BME280;65309;49.790;18.972;2022-12-29T12:01:48;96605.81;;;8.61;55.58
76478;BME280;65309;49.790;18.972;2022-12-29T12:06:57;96589.25;;;8.46;57.17
76478;BME280;65309;49.790;18.972;2022-12-29T12:12:03;96610.28;;;8.58;55.88
76478;BME280;65309;49.790;18.972;2022-12-29T12:17:12;96598.97;;;8.56;56.13
76478;BME280;65309;49.790;18.972;2022-12-29T12:22:21;96604.06;;;8.49;55.92
76478;BME280;65309;49.790;18.972;2022-12-29T12:27:33;96615.03;;;8.58;55.62
76478;BME280;65309;49.790;18.972;2022-12-29T12:32:45;96602.31;;;8.60;55.67
76478;BME280;65309;49.790;18.972;2022-12-29T12:37:58;96603.88;;;8.52;54.58
76478;BME280;65309;49.790;18.972;2022-12-29T12:43:21;96599.16;;;8.53;55.80
76478;BME280;65309;49.790;18.972;2022-12-29T12:48:47;96606.31;;;8.59;55.86
76478;BME280;65309;49.790;18.972;2022-12-29T12:54:05;96597.09;;;8.62;56.60
76478;BME280;65309;49.790;18.972;2022-12-29T12:59:21;96596.97;;;8.57;57.44
76478;BME280;65309;49.790;18.972;2022-12-29T13:04:42;96598.66;;;8.78;59.46
76478;BME280;65309;49.790;18.972;2022-12-29T13:10:04;96612.31;;;8.72;57.50
76478;BME280;65309;49.790;18.972;2022-12-29T13:15:24;96605.13;;;8.90;56.56
76478;BME280;65309;49.790;18.972;2022-12-29T13:20:36;96617.00;;;8.81;56.03
76478;BME280;65309;49.790;18.972;2022-12-29T13:25:45;96609.66;;;8.63;59.08
76478;BME280;65309;49.790;18.972;2022-12-29T13:30:57;96606.91;;;8.63;56.88
76478;BME280;65309;49.790;18.972;2022-12-29T13:36:04;96600.69;;;8.54;54.98
76478;BME280;65309;49.790;18.972;2022-12-29T13:41:12;96594.91;;;8.66;56.78
76478;BME280;65309;49.790;18.972;2022-12-29T13:46:21;96614.72;;;8.56;54.28
76478;BME280;65309;49.790;18.972;2022-12-29T13:51:26;96618.25;;;8.56;55.53
76478;BME280;65309;49.790;18.972;2022-12-29T13:56:34;96607.94;;;8.42;56.08
76478;BME280;65309;49.790;18.972;2022-12-29T14:01:48;96607.31;;;8.14;57.66
76478;BME280;65309;49.790;18.972;2022-12-29T14:07:01;96608.06;;;8.15;57.11
76478;BME280;65309;49.790;18.972;2022-12-29T14:12:19;96602.53;;;7.91;57.64
76478;BME280;65309;49.790;18.972;2022-12-29T14:17:22;96589.56;;;7.82;60.56
76478;BME280;65309;49.790;18.972;2022-12-29T14:22:26;96611.03;;;7.60;59.39
76478;BME280;65309;49.790;18.972;2022-12-29T14:33:11;96615.16;;;7.14;62.01
76478;BME280;65309;49.790;18.972;2022-12-29T14:38:26;96602.16;;;7.05;62.45
76478;BME280;65309;49.790;18.972;2022-12-29T14:43:30;96599.59;;;6.92;63.02
76478;BME280;65309;49.790;18.972;2022-12-29T14:48:37;96605.53;;;6.82;63.56
76478;BME280;65309;49.790;18.972;2022-12-29T14:53:43;96596.84;;;6.83;63.20
76478;BME280;65309;49.790;18.972;2022-12-29T14:58:50;96608.41;;;6.69;63.32
76478;BME280;65309;49.790;18.972;2022-12-29T15:03:57;96599.88;;;6.85;65.20
76478;BME280;65309;49.790;18.972;2022-12-29T15:09:04;96611.63;;;6.86;62.58
76478;BME280;65309;49.790;18.972;2022-12-29T15:19:44;96592.06;;;7.02;63.33
76478;BME280;65309;49.790;18.972;2022-12-29T15:24:46;96602.13;;;7.14;62.65
76478;BME280;65309;49.790;18.972;2022-12-29T15:29:56;96597.09;;;7.13;61.96
76478;BME280;65309;49.790;18.972;2022-12-29T15:34:59;96605.47;;;7.27;62.49
76478;BME280;65309;49.790;18.972;2022-12-29T15:40:03;96606.25;;;7.19;62.82
76478;BME280;65309;49.790;18.972;2022-12-29T15:45:08;96604.41;;;7.25;61.47
76478;BME280;65309;49.790;18.972;2022-12-29T15:50:22;96602.28;;;7.11;61.37
76478;BME280;65309;49.790;18.972;2022-12-29T15:55:29;96606.56;;;7.12;61.83
76478;BME280;65309;49.790;18.972;2022-12-29T16:00:33;96613.28;;;7.02;60.87
76478;BME280;65309;49.790;18.972;2022-12-29T16:05:38;96595.91;;;7.05;61.85
76478;BME280;65309;49.790;18.972;2022-12-29T16:10:42;96589.31;;;7.02;60.99
76478;BME280;65309;49.790;18.972;2022-12-29T16:15:45;96611.47;;;6.89;60.65
76478;BME280;65309;49.790;18.972;2022-12-29T16:20:49;96614.06;;;6.93;60.43
76478;BME280;65309;49.790;18.972;2022-12-29T16:25:51;96625.38;;;6.86;61.11
76478;BME280;65309;49.790;18.972;2022-12-29T16:31:02;96617.00;;;6.80;60.91
76478;BME280;65309;49.790;18.972;2022-12-29T16:36:28;96593.16;;;6.77;61.57
76478;BME280;65309;49.790;18.972;2022-12-29T16:41:31;96616.81;;;6.66;61.03
76478;BME280;65309;49.790;18.972;2022-12-29T16:46:33;96620.63;;;6.68;61.14
76478;BME280;65309;49.790;18.972;2022-12-29T16:51:36;96620.78;;;6.74;61.45
76478;BME280;65309;49.790;18.972;2022-12-29T16:56:43;96627.06;;;6.74;61.09
76478;BME280;65309;49.790;18.972;2022-12-29T17:01:46;96633.34;;;6.84;61.76
76478;BME280;65309;49.790;18.972;2022-12-29T17:06:50;96623.09;;;6.75;60.88
76478;BME280;65309;49.790;18.972;2022-12-29T17:11:54;96615.00;;;6.63;61.94
76478;BME280;65309;49.790;18.972;2022-12-29T17:17:12;96606.28;;;6.55;63.01
76478;BME280;65309;49.790;18.972;2022-12-29T17:22:18;96607.50;;;6.54;62.58
76478;BME280;65309;49.790;18.972;2022-12-29T17:27:23;96596.81;;;6.56;63.53
76478;BME280;65309;49.790;18.972;2022-12-29T17:32:26;96613.91;;;6.69;63.43
76478;BME280;65309;49.790;18.972;2022-12-29T17:37:31;96588.09;;;6.85;61.59
76478;BME280;65309;49.790;18.972;2022-12-29T17:42:37;96611.50;;;6.71;61.63
76478;BME280;65309;49.790;18.972;2022-12-29T17:47:40;96628.44;;;6.79;61.10
76478;BME280;65309;49.790;18.972;2022-12-29T17:52:46;96624.59;;;6.76;61.54
76478;BME280;65309;49.790;18.972;2022-12-29T17:57:51;96623.72;;;6.79;60.91
76478;BME280;65309;49.790;18.972;2022-12-29T18:02:53;96635.00;;;6.90;61.72
76478;BME280;65309;49.790;18.972;2022-12-29T18:07:58;96639.56;;;6.93;61.32
76478;BME280;65309;49.790;18.972;2022-12-29T18:13:00;96622.47;;;6.89;61.65
76478;BME280;65309;49.790;18.972;2022-12-29T18:18:10;96636.38;;;6.95;60.70
76478;BME280;65309;49.790;18.972;2022-12-29T18:23:17;96627.03;;;7.02;59.53
76478;BME280;65309;49.790;18.972;2022-12-29T18:28:20;96642.00;;;7.19;59.15
76478;BME280;65309;49.790;18.972;2022-12-29T18:33:22;96640.03;;;7.28;60.10
76478;BME280;65309;49.790;18.972;2022-12-29T18:38:29;96617.56;;;7.30;58.40
76478;BME280;65309;49.790;18.972;2022-12-29T18:43:31;96624.13;;;7.32;58.65
76478;BME280;65309;49.790;18.972;2022-12-29T18:48:33;96631.59;;;7.32;59.06
76478;BME280;65309;49.790;18.972;2022-12-29T18:53:37;96624.28;;;7.29;58.59
76478;BME280;65309;49.790;18.972;2022-12-29T18:58:39;96617.66;;;7.45;58.07
76478;BME280;65309;49.790;18.972;2022-12-29T19:03:41;96615.03;;;7.59;57.50
76478;BME280;65309;49.790;18.972;2022-12-29T19:08:45;96613.78;;;7.60;55.61
76478;BME280;65309;49.790;18.972;2022-12-29T19:13:47;96604.03;;;7.59;56.33
76478;BME280;65309;49.790;18.972;2022-12-29T19:18:49;96626.66;;;7.54;57.85
76478;BME280;65309;49.790;18.972;2022-12-29T19:24:11;96641.91;;;7.64;57.25
76478;BME280;65309;49.790;18.972;2022-12-29T19:29:14;96651.53;;;7.78;55.73
76478;BME280;65309;49.790;18.972;2022-12-29T19:34:17;96656.25;;;7.77;56.98
76478;BME280;65309;49.790;18.972;2022-12-29T19:39:21;96650.66;;;7.63;56.25
76478;BME280;65309;49.790;18.972;2022-12-29T19:44:23;96641.66;;;7.53;56.64
76478;BME280;65309;49.790;18.972;2022-12-29T19:49:25;96637.88;;;7.32;57.39
76478;BME280;65309;49.790;18.972;2022-12-29T19:54:29;96643.25;;;7.18;57.41
76478;BME280;65309;49.790;18.972;2022-12-29T19:59:30;96645.41;;;7.14;59.15
76478;BME280;65309;49.790;18.972;2022-12-29T20:04:32;96659.88;;;7.14;59.32
76478;BME280;65309;49.790;18.972;2022-12-29T20:09:36;96649.66;;;7.15;59.71
76478;BME280;65309;49.790;18.972;2022-12-29T20:14:38;96645.06;;;7.03;59.46
76478;BME280;65309;49.790;18.972;2022-12-29T20:19:41;96653.03;;;7.01;59.25
76478;BME280;65309;49.790;18.972;2022-12-29T20:24:44;96654.56;;;6.92;60.54
76478;BME280;65309;49.790;18.972;2022-12-29T20:29:51;96655.16;;;6.87;60.14
76478;BME280;65309;49.790;18.972;2022-12-29T20:34:53;96628.44;;;6.79;61.25
76478;BME280;65309;49.790;18.972;2022-12-29T20:39:56;96631.63;;;6.77;60.84
76478;BME280;65309;49.790;18.972;2022-12-29T20:44:58;96620.19;;;6.70;60.33
76478;BME280;65309;49.790;18.972;2022-12-29T20:50:02;96633.31;;;6.75;61.07
76478;BME280;65309;49.790;18.972;2022-12-29T20:55:06;96645.09;;;6.75;61.04
76478;BME280;65309;49.790;18.972;2022-12-29T21:00:10;96640.81;;;6.74;60.55
76478;BME280;65309;49.790;18.972;2022-12-29T21:05:17;96639.44;;;6.79;61.06
76478;BME280;65309;49.790;18.972;2022-12-29T21:10:28;96644.00;;;6.73;59.98
76478;BME280;65309;49.790;18.972;2022-12-29T21:15:30;96655.47;;;6.89;59.93
76478;BME280;65309;49.790;18.972;2022-12-29T21:20:32;96665.53;;;6.74;60.21
76478;BME280;65309;49.790;18.972;2022-12-29T21:25:36;96665.56;;;6.83;60.02
76478;BME280;65309;49.790;18.972;2022-12-29T21:30:44;96650.56;;;6.66;59.77
76478;BME280;65309;49.790;18.972;2022-12-29T21:35:46;96643.53;;;6.65;60.40
76478;BME280;65309;49.790;18.972;2022-12-29T21:40:50;96645.25;;;6.72;60.28
76478;BME280;65309;49.790;18.972;2022-12-29T21:45:52;96655.13;;;6.60;60.81
76478;BME280;65309;49.790;18.972;2022-12-29T21:50:56;96652.09;;;6.58;60.72
76478;BME280;65309;49.790;18.972;2022-12-29T21:56:18;96649.66;;;6.69;60.09
76478;BME280;65309;49.790;18.972;2022-12-29T22:01:21;96642.94;;;6.70;60.27
76478;BME280;65309;49.790;18.972;2022-12-29T22:06:42;96648.44;;;6.88;59.95
76478;BME280;65309;49.790;18.972;2022-12-29T22:12:04;96649.03;;;6.74;60.64
76478;BME280;65309;49.790;18.972;2022-12-29T22:17:25;96649.34;;;6.94;61.12
76478;BME280;65309;49.790;18.972;2022-12-29T22:22:31;96652.56;;;6.84;59.15
76478;BME280;65309;49.790;18.972;2022-12-29T22:27:34;96646.75;;;6.82;60.20
76478;BME280;65309;49.790;18.972;2022-12-29T22:32:36;96654.25;;;6.90;60.57
76478;BME280;65309;49.790;18.972;2022-12-29T22:37:40;96663.56;;;6.84;60.54
76478;BME280;65309;49.790;18.972;2022-12-29T22:42:45;96659.31;;;7.01;60.97
76478;BME280;65309;49.790;18.972;2022-12-29T22:47:47;96661.13;;;6.95;59.77
76478;BME280;65309;49.790;18.972;2022-12-29T22:52:49;96666.59;;;6.86;60.91
76478;BME280;65309;49.790;18.972;2022-12-29T22:57:53;96664.94;;;6.88;60.55
76478;BME280;65309;49.790;18.972;2022-12-29T23:02:55;96660.19;;;6.89;60.14
76478;BME280;65309;49.790;18.972;2022-12-29T23:07:59;96668.00;;;7.00;60.65
76478;BME280;65309;49.790;18.972;2022-12-29T23:13:04;96660.34;;;6.85;60.17
76478;BME280;65309;49.790;18.972;2022-12-29T23:18:06;96667.53;;;6.83;61.62
76478;BME280;65309;49.790;18.972;2022-12-29T23:23:08;96663.22;;;6.73;60.99
76478;BME280;65309;49.790;18.972;2022-12-29T23:28:12;96656.84;;;6.76;62.02
76478;BME280;65309;49.790;18.972;2022-12-29T23:33:14;96658.81;;;6.66;60.91
76478;BME280;65309;49.790;18.972;2022-12-29T23:38:16;96656.06;;;6.75;60.74
76478;BME280;65309;49.790;18.972;2022-12-29T23:43:19;96653.00;;;6.73;60.81
76478;BME280;65309;49.790;18.972;2022-12-29T23:48:21;96662.19;;;7.07;60.96
76478;BME280;65309;49.790;18.972;2022-12-29T23:53:23;96646.13;;;7.23;60.26
76478;BME280;65309;49.790;18.972;2022-12-29T23:58:27;96642.91;;;7.34;61.05
